createdAt,value
2023-03-06T05:02:35.948Z,97.30
2023-03-06T05:05:02.988Z,97.23
2023-03-06T05:07:29.522Z,97.38
2023-03-06T05:09:56.255Z,97.03
2023-03-06T05:12:22.841Z,97.34
2023-03-06T05:14:49.372Z,97.36
2023-03-06T05:17:15.909Z,96.90
2023-03-06T05:19:42.654Z,96.72
2023-03-06T05:22:09.291Z,96.68
2023-03-06T05:24:37.048Z,96.22
2023-03-06T05:27:05.450Z,96.35
2023-03-06T05:29:32.356Z,96.23
2023-03-06T05:31:59.032Z,96.63
2023-03-06T05:34:25.562Z,96.14
2023-03-06T05:36:52.121Z,95.76
2023-03-06T05:39:18.723Z,95.95
2023-03-06T05:41:45.189Z,95.34
2023-03-06T05:44:11.696Z,95.06
2023-03-06T05:46:38.551Z,95.19
2023-03-06T05:49:05.074Z,95.24
2023-03-06T05:51:31.664Z,95.03
2023-03-06T05:53:58.237Z,94.72
2023-03-06T05:56:24.764Z,93.93
2023-03-06T05:58:51.638Z,94.01
2023-03-06T06:01:20.187Z,93.98
2023-03-06T06:03:48.429Z,94.04
2023-03-06T06:06:15.592Z,93.67
2023-03-06T06:08:42.319Z,93.43
2023-03-06T06:11:10.957Z,93.03
2023-03-06T06:13:38.317Z,93.37
2023-03-06T06:16:12.862Z,93.49
2023-03-06T06:18:41.225Z,93.31
2023-03-06T06:21:10.077Z,93.49
2023-03-06T06:23:36.802Z,93.37
2023-03-06T06:26:05.377Z,93.60
2023-03-06T06:28:33.494Z,93.74
2023-03-06T06:31:00.536Z,93.65
2023-03-06T06:33:27.108Z,93.19
2023-03-06T06:35:53.807Z,93.75
2023-03-06T06:38:20.419Z,94.50
2023-03-06T06:40:58.411Z,94.82
2023-03-06T06:43:33.453Z,94.14
2023-03-06T06:46:24.311Z,94.61
2023-03-06T06:48:50.654Z,95.04
2023-03-06T06:51:17.255Z,95.06
2023-03-06T06:53:44.615Z,93.83
2023-03-06T06:56:11.202Z,93.96
2023-03-06T06:58:37.982Z,93.66
2023-03-06T07:01:10.070Z,93.93
2023-03-06T07:03:36.765Z,93.57
2023-03-06T07:06:04.293Z,93.74
2023-03-06T07:08:31.047Z,94.03
2023-03-06T07:10:58.381Z,93.87
2023-03-06T07:13:25.219Z,93.57
2023-03-06T07:15:51.811Z,93.90
2023-03-06T07:18:18.438Z,93.71
2023-03-06T07:20:44.928Z,93.33
2023-03-06T07:23:13.430Z,93.19
2023-03-06T07:25:39.974Z,92.69
2023-03-06T07:28:06.957Z,92.20
2023-03-06T07:30:33.524Z,91.83
2023-03-06T07:33:00.573Z,91.88
2023-03-06T07:35:27.619Z,91.17
2023-03-06T07:37:54.505Z,90.61
2023-03-06T07:40:21.233Z,91.06
2023-03-06T07:42:47.829Z,91.17
2023-03-06T07:45:14.437Z,90.81
2023-03-06T07:47:41.228Z,90.95
2023-03-06T07:50:08.372Z,90.81
2023-03-06T07:52:34.915Z,90.73
2023-03-06T07:55:02.193Z,90.87
2023-03-06T07:57:28.809Z,91.07
2023-03-06T07:59:55.448Z,90.64
2023-03-06T08:02:22.039Z,90.02
2023-03-06T08:04:56.490Z,89.50
2023-03-06T08:07:23.565Z,89.19
2023-03-06T08:09:50.313Z,88.50
2023-03-06T08:12:16.843Z,87.20
2023-03-06T08:14:43.506Z,86.64
2023-03-06T08:17:10.079Z,84.25
2023-03-06T08:19:36.750Z,81.08
2023-03-06T08:22:05.642Z,81.96
2023-03-06T08:24:33.455Z,82.32
2023-03-06T08:27:00.693Z,81.21
2023-03-06T08:29:27.584Z,80.26
2023-03-06T08:31:54.206Z,81.77
2023-03-06T08:34:24.310Z,82.15
2023-03-06T08:36:51.385Z,82.62
2023-03-06T08:39:18.706Z,83.52
2023-03-06T08:41:45.397Z,80.91
2023-03-06T08:44:12.299Z,80.24
2023-03-06T08:46:38.865Z,81.47
2023-03-06T08:49:05.459Z,82.52
2023-03-06T08:51:33.131Z,81.34
2023-03-06T08:54:00.258Z,79.98
2023-03-06T08:56:29.362Z,80.86
2023-03-06T08:58:57.758Z,82.26
2023-03-06T09:01:27.525Z,82.29
2023-03-06T09:03:56.217Z,80.43
2023-03-06T09:06:23.750Z,78.31
2023-03-06T09:08:54.490Z,77.63
2023-03-06T09:11:23.634Z,77.58
2023-03-06T09:13:50.294Z,76.89
2023-03-06T09:16:16.924Z,76.52
2023-03-06T09:18:43.495Z,75.47
2023-03-06T09:21:10.399Z,75.09
2023-03-06T09:23:39.649Z,73.66
2023-03-06T09:26:08.452Z,75.38
2023-03-06T09:28:36.707Z,75.21
2023-03-06T09:31:14.988Z,75.85
2023-03-06T09:33:42.776Z,73.96
2023-03-06T09:36:14.660Z,75.27
2023-03-06T09:38:41.282Z,74.65
2023-03-06T09:41:33.141Z,76.36
2023-03-06T09:44:09.140Z,76.18
2023-03-06T09:46:43.093Z,76.84
2023-03-06T09:49:23.070Z,76.27
2023-03-06T09:52:00.489Z,75.03
2023-03-06T09:54:39.625Z,74.51
2023-03-06T09:57:20.563Z,72.87
2023-03-06T09:59:51.135Z,73.23
2023-03-06T10:02:25.134Z,73.83
2023-03-06T10:05:01.093Z,74.06
2023-03-06T10:07:45.035Z,74.88
2023-03-06T10:10:26.972Z,75.72
2023-03-06T10:13:06.396Z,74.27
2023-03-06T10:15:36.210Z,74.03
2023-03-06T10:18:05.565Z,74.93
2023-03-06T10:20:49.709Z,74.38
2023-03-06T10:23:52.641Z,74.37
2023-03-06T10:26:37.863Z,75.33
2023-03-06T10:29:14.562Z,77.27
2023-03-06T10:31:49.682Z,77.20
2023-03-06T10:34:28.559Z,78.05
2023-03-06T10:36:55.145Z,80.05
2023-03-06T10:39:23.173Z,82.41
2023-03-06T10:41:50.072Z,83.16
2023-03-06T10:44:20.209Z,82.52
2023-03-06T10:46:49.576Z,83.74
2023-03-06T10:49:35.396Z,83.86
2023-03-06T10:52:14.034Z,83.47
2023-03-06T10:54:44.633Z,83.00
2023-03-06T10:57:27.475Z,81.55
2023-03-06T11:00:04.688Z,81.22
2023-03-06T11:02:39.250Z,81.09
2023-03-06T11:05:07.173Z,80.24
2023-03-06T11:07:35.705Z,80.63
2023-03-06T11:10:19.171Z,81.44
2023-03-06T11:13:17.103Z,80.32
2023-03-06T11:15:56.476Z,77.03
2023-03-06T11:18:28.512Z,73.69
2023-03-06T11:20:55.995Z,73.74
2023-03-06T11:23:35.617Z,71.61
2023-03-06T11:26:17.398Z,68.53
2023-03-06T11:29:06.721Z,69.75
2023-03-06T11:31:58.480Z,65.60
2023-03-06T11:34:50.276Z,64.58
2023-03-06T11:37:32.545Z,63.21
2023-03-06T11:39:59.509Z,62.96
2023-03-06T11:42:40.887Z,61.95
2023-03-06T11:45:34.705Z,61.12
2023-03-06T11:48:21.891Z,59.98
2023-03-06T11:50:53.429Z,60.49
2023-03-06T11:53:30.287Z,61.92
2023-03-06T11:56:18.711Z,65.55
2023-03-06T11:59:27.042Z,68.04
2023-03-06T12:02:22.121Z,68.94
2023-03-06T12:04:58.601Z,68.90
2023-03-06T12:07:33.115Z,68.56
2023-03-06T12:10:15.145Z,70.00
2023-03-06T12:13:28.121Z,69.02
2023-03-06T12:16:25.606Z,68.40
2023-03-06T12:19:19.100Z,67.71
2023-03-06T12:22:09.135Z,63.95
2023-03-06T12:25:05.813Z,63.64
2023-03-06T12:27:50.895Z,67.55
2023-03-06T12:30:47.646Z,68.89
2023-03-06T12:33:19.846Z,70.62
2023-03-06T12:35:58.685Z,70.32
2023-03-06T12:38:53.316Z,68.55
2023-03-06T12:41:40.067Z,65.15
2023-03-06T12:44:47.720Z,62.78
2023-03-06T12:47:24.110Z,65.12
2023-03-06T12:49:59.126Z,65.81
2023-03-06T12:52:31.397Z,66.23
2023-03-06T12:55:05.597Z,65.30
2023-03-06T12:57:32.760Z,67.14
2023-03-06T12:59:59.359Z,66.46
2023-03-06T13:03:00.540Z,67.21
2023-03-06T13:05:56.659Z,70.10
2023-03-06T13:08:39.149Z,69.34
2023-03-06T13:11:38.393Z,66.98
2023-03-06T13:14:26.827Z,68.52
2023-03-06T13:16:53.495Z,66.33
2023-03-06T13:19:26.688Z,69.48
2023-03-06T13:21:56.266Z,66.36
2023-03-06T13:24:37.230Z,62.66
2023-03-06T13:27:09.501Z,58.04
2023-03-06T13:29:36.040Z,57.76
2023-03-06T13:32:02.725Z,54.76
2023-03-06T13:34:31.968Z,54.95
2023-03-06T13:37:13.995Z,56.67
2023-03-06T13:39:55.575Z,57.15
2023-03-06T13:42:34.452Z,58.77
2023-03-06T13:45:13.398Z,59.87
2023-03-06T13:48:21.087Z,61.79
2023-03-06T13:50:47.764Z,61.26
2023-03-06T13:53:49.138Z,61.83
2023-03-06T13:56:21.612Z,61.14
2023-03-06T13:59:03.453Z,60.80
2023-03-06T14:01:40.473Z,60.50
2023-03-06T14:04:32.638Z,60.62
2023-03-06T14:06:59.129Z,61.60
2023-03-06T14:09:29.864Z,62.24
2023-03-06T14:12:06.448Z,59.90
2023-03-06T14:14:39.682Z,58.56
2023-03-06T14:17:06.403Z,59.35
2023-03-06T14:19:38.100Z,60.16
2023-03-06T14:22:07.081Z,61.44
2023-03-06T14:24:38.174Z,62.06
2023-03-06T14:27:04.984Z,63.06
2023-03-06T14:29:33.442Z,63.21
2023-03-06T14:32:02.045Z,62.62
2023-03-06T14:34:32.820Z,61.20
2023-03-06T14:37:08.060Z,61.51
2023-03-06T14:39:43.447Z,62.46
2023-03-06T14:42:27.765Z,63.04
2023-03-06T14:45:21.270Z,63.67
2023-03-06T14:47:52.014Z,64.07
2023-03-06T14:50:23.171Z,62.72
2023-03-06T14:52:58.850Z,64.92
2023-03-06T14:55:28.382Z,64.98
2023-03-06T14:58:16.221Z,64.94
2023-03-06T15:00:49.625Z,63.90
2023-03-06T15:03:27.701Z,64.36
2023-03-06T15:05:55.400Z,64.40
2023-03-06T15:08:29.956Z,64.77
2023-03-06T15:11:05.314Z,65.64
2023-03-06T15:13:34.017Z,71.31
2023-03-06T15:16:22.826Z,74.94
2023-03-06T15:18:57.172Z,76.89
2023-03-06T15:21:26.608Z,78.24
2023-03-06T15:23:55.861Z,75.59
2023-03-06T15:26:37.130Z,75.01
2023-03-06T15:29:09.252Z,74.94
2023-03-06T15:31:46.740Z,75.03
2023-03-06T15:34:23.870Z,75.13
2023-03-06T15:36:55.637Z,73.97
2023-03-06T15:39:41.739Z,74.03
2023-03-06T15:42:23.624Z,74.68
2023-03-06T15:44:56.375Z,78.94
2023-03-06T15:47:24.036Z,79.07
2023-03-06T15:49:53.241Z,78.90
2023-03-06T15:52:21.243Z,78.21
2023-03-06T15:54:47.820Z,77.68
2023-03-06T15:57:24.902Z,75.46
2023-03-06T15:59:52.456Z,75.26
2023-03-06T16:02:21.308Z,74.91
2023-03-06T16:04:48.880Z,75.79
2023-03-06T16:07:15.825Z,74.82
2023-03-06T16:09:42.948Z,75.62
2023-03-06T16:12:15.911Z,74.60
2023-03-06T16:14:42.511Z,74.12
2023-03-06T16:17:12.183Z,74.51
2023-03-06T16:19:38.997Z,74.45
2023-03-06T16:22:06.059Z,74.59
2023-03-06T16:24:32.606Z,73.95
2023-03-06T16:27:00.606Z,73.52
2023-03-06T16:29:28.478Z,72.42
2023-03-06T16:31:57.217Z,72.34
2023-03-06T16:34:25.096Z,71.87
2023-03-06T16:36:52.068Z,71.71
2023-03-06T16:39:21.006Z,72.23
2023-03-06T16:41:49.284Z,72.97
2023-03-06T16:44:16.021Z,73.28
2023-03-06T16:46:48.149Z,73.73
2023-03-06T16:49:23.333Z,74.02
2023-03-06T16:51:51.268Z,74.33
2023-03-06T16:54:18.541Z,74.68
2023-03-06T16:56:45.394Z,75.17
2023-03-06T16:59:12.399Z,75.75
2023-03-06T17:01:43.432Z,75.84
2023-03-06T17:04:10.945Z,75.70
2023-03-06T17:06:38.142Z,76.02
2023-03-06T17:09:05.018Z,75.28
2023-03-06T17:11:32.017Z,76.19
2023-03-06T17:13:58.668Z,76.20
2023-03-06T17:16:25.270Z,76.87
2023-03-06T17:18:52.566Z,76.77
2023-03-06T17:21:19.415Z,76.62
2023-03-06T17:23:46.577Z,77.33
2023-03-06T17:26:16.107Z,78.26
2023-03-06T17:28:43.066Z,79.09
2023-03-06T17:31:17.253Z,79.80
2023-03-06T17:33:44.012Z,79.76
2023-03-06T17:36:11.763Z,80.20
2023-03-06T17:38:39.051Z,80.12
2023-03-06T17:41:06.938Z,80.74
2023-03-06T17:43:34.813Z,81.11
2023-03-06T17:46:06.214Z,80.72
2023-03-06T17:48:33.412Z,80.00
2023-03-06T17:51:00.309Z,80.26
2023-03-06T17:53:27.607Z,81.30
2023-03-06T17:55:55.224Z,80.75
2023-03-06T17:58:21.802Z,81.37
2023-03-06T18:00:49.125Z,82.22
2023-03-06T18:03:15.785Z,82.61
2023-03-06T18:05:43.043Z,82.47
2023-03-06T18:08:10.341Z,83.22
2023-03-06T18:10:41.627Z,83.44
2023-03-06T18:13:09.607Z,83.42
2023-03-06T18:15:41.058Z,83.49
2023-03-06T18:18:08.707Z,83.88
2023-03-06T18:20:41.016Z,84.78
2023-03-06T18:23:08.077Z,84.49
2023-03-06T18:25:34.715Z,84.64
2023-03-06T18:28:01.326Z,84.64
2023-03-06T18:30:28.073Z,84.49
2023-03-06T18:32:54.666Z,85.26
2023-03-06T18:35:21.798Z,85.44
2023-03-06T18:37:48.536Z,85.15
2023-03-06T18:40:15.328Z,85.42
2023-03-06T18:42:41.934Z,85.81
2023-03-06T18:45:09.254Z,86.96
2023-03-06T18:47:35.979Z,86.76
2023-03-06T18:50:05.283Z,87.34
2023-03-06T18:52:33.727Z,87.63
2023-03-06T18:55:00.333Z,88.10
2023-03-06T18:57:28.721Z,88.74
2023-03-06T18:59:56.815Z,88.87
2023-03-06T19:02:23.366Z,89.33
2023-03-06T19:04:49.908Z,89.49
2023-03-06T19:07:16.661Z,89.67
2023-03-06T19:09:44.456Z,89.81
2023-03-06T19:12:11.555Z,90.00
2023-03-06T19:14:38.266Z,90.27
2023-03-06T19:17:05.008Z,90.22
2023-03-06T19:19:31.683Z,90.46
2023-03-06T19:21:58.807Z,90.87
2023-03-06T19:24:25.845Z,91.42
2023-03-06T19:26:52.655Z,91.71
2023-03-06T19:29:19.195Z,91.99
2023-03-06T19:31:45.896Z,92.36
2023-03-06T19:34:12.441Z,92.18
2023-03-06T19:36:40.874Z,92.24
2023-03-06T19:39:09.552Z,92.50
2023-03-06T19:41:36.526Z,92.71
2023-03-06T19:44:05.776Z,92.68
2023-03-06T19:46:33.062Z,92.72
2023-03-06T19:49:01.633Z,93.32
2023-03-06T19:51:28.903Z,93.34
2023-03-06T19:53:56.910Z,93.77
2023-03-06T19:56:26.185Z,93.90
2023-03-06T19:58:53.140Z,93.91
2023-03-06T20:01:21.948Z,93.94
2023-03-06T20:03:50.630Z,93.96
2023-03-06T20:06:19.242Z,93.93
2023-03-06T20:08:47.323Z,93.90
2023-03-06T20:11:24.767Z,94.12
2023-03-06T20:13:51.561Z,94.27
2023-03-06T20:16:19.023Z,94.33
2023-03-06T20:18:45.984Z,94.25
2023-03-06T20:21:13.032Z,94.43
2023-03-06T20:23:39.664Z,94.51
2023-03-06T20:26:14.972Z,94.45
2023-03-06T20:28:42.199Z,94.23
2023-03-06T20:31:08.750Z,94.50
2023-03-06T20:33:35.674Z,94.31
2023-03-06T20:36:02.455Z,94.26
2023-03-06T20:38:29.074Z,94.25
2023-03-06T20:40:58.046Z,94.33
2023-03-06T20:43:24.733Z,94.30
2023-03-06T20:46:02.637Z,94.29
2023-03-06T20:48:29.875Z,94.80
2023-03-06T20:51:05.593Z,94.80
2023-03-06T20:53:35.057Z,94.88
2023-03-06T20:56:01.622Z,94.81
2023-03-06T20:58:30.211Z,95.33
2023-03-06T21:01:04.365Z,95.17
2023-03-06T21:03:30.926Z,94.77
2023-03-06T21:05:57.446Z,94.72
2023-03-06T21:08:24.342Z,94.86
2023-03-06T21:10:51.629Z,94.63
2023-03-06T21:13:19.124Z,94.09
2023-03-06T21:15:47.652Z,93.81
2023-03-06T21:18:14.783Z,93.51
2023-03-06T21:20:41.696Z,93.46
2023-03-06T21:23:09.027Z,93.50
2023-03-06T21:25:35.821Z,93.52
2023-03-06T21:28:02.479Z,93.71
2023-03-06T21:30:32.316Z,93.45
2023-03-06T21:32:58.847Z,93.70
2023-03-06T21:35:25.462Z,93.55
2023-03-06T21:37:52.112Z,93.47
2023-03-06T21:40:19.046Z,93.67
2023-03-06T21:42:45.571Z,93.61
2023-03-06T21:45:12.301Z,93.94
2023-03-06T21:47:40.804Z,93.96
2023-03-06T21:50:09.862Z,93.99
2023-03-06T21:52:36.407Z,94.64
2023-03-06T21:55:03.128Z,94.65
2023-03-06T21:57:29.699Z,94.43
2023-03-06T21:59:56.248Z,94.38
2023-03-06T22:02:22.931Z,94.13
2023-03-06T22:04:53.353Z,94.37
2023-03-06T22:07:20.608Z,94.75
2023-03-06T22:09:47.289Z,94.43
2023-03-06T22:12:13.946Z,94.17
2023-03-06T22:14:42.819Z,94.17
